sensor_id;sensor_type;location;lat;lon;timestamp;P1;durP1;ratioP1;P2;durP2;ratioP2
21430;SDS011;10876;49.038;10.608;2022-12-28T00:00:07;4.18;;;3.10;;
21430;SDS011;10876;49.038;10.608;2022-12-28T00:02:34;6.15;;;3.42;;
21430;SDS011;10876;49.038;10.608;2022-12-28T00:05:01;7.95;;;3.88;;
21430;SDS011;10876;49.038;10.608;2022-12-28T00:07:27;7.28;;;4.38;;
21430;SDS011;10876;49.038;10.608;2022-12-28T00:09:55;5.32;;;3.70;;
21430;SDS011;10876;49.038;10.608;2022-12-28T00:12:22;6.20;;;3.90;;
21430;SDS011;10876;49.038;10.608;2022-12-28T00:14:48;9.00;;;4.60;;
21430;SDS011;10876;49.038;10.608;2022-12-28T00:17:15;5.15;;;3.65;;
21430;SDS011;10876;49.038;10.608;2022-12-28T00:19:42;4.97;;;3.50;;
21430;SDS011;10876;49.038;10.608;2022-12-28T00:22:08;4.55;;;3.05;;
21430;SDS011;10876;49.038;10.608;2022-12-28T00:24:35;7.93;;;3.60;;
21430;SDS011;10876;49.038;10.608;2022-12-28T00:27:03;8.10;;;3.60;;
21430;SDS011;10876;49.038;10.608;2022-12-28T00:29:29;5.00;;;3.08;;
21430;SDS011;10876;49.038;10.608;2022-12-28T00:31:56;6.50;;;2.63;;
21430;SDS011;10876;49.038;10.608;2022-12-28T00:34:23;6.40;;;3.25;;
21430;SDS011;10876;49.038;10.608;2022-12-28T00:36:49;6.18;;;3.20;;
21430;SDS011;10876;49.038;10.608;2022-12-28T00:39:16;6.70;;;3.60;;
21430;SDS011;10876;49.038;10.608;2022-12-28T00:41:43;6.28;;;3.63;;
21430;SDS011;10876;49.038;10.608;2022-12-28T00:44:11;7.50;;;3.92;;
21430;SDS011;10876;49.038;10.608;2022-12-28T00:46:37;8.55;;;4.05;;
21430;SDS011;10876;49.038;10.608;2022-12-28T00:49:04;5.63;;;4.32;;
21430;SDS011;10876;49.038;10.608;2022-12-28T00:51:31;7.65;;;4.20;;
21430;SDS011;10876;49.038;10.608;2022-12-28T00:53:57;8.43;;;4.70;;
21430;SDS011;10876;49.038;10.608;2022-12-28T00:56:24;7.18;;;4.57;;
21430;SDS011;10876;49.038;10.608;2022-12-28T00:58:54;6.80;;;4.72;;
21430;SDS011;10876;49.038;10.608;2022-12-28T01:01:22;8.32;;;5.32;;
21430;SDS011;10876;49.038;10.608;2022-12-28T01:03:49;11.55;;;5.30;;
21430;SDS011;10876;49.038;10.608;2022-12-28T01:06:16;7.20;;;4.68;;
21430;SDS011;10876;49.038;10.608;2022-12-28T01:08:43;10.65;;;4.93;;
21430;SDS011;10876;49.038;10.608;2022-12-28T01:11:11;8.60;;;4.07;;
21430;SDS011;10876;49.038;10.608;2022-12-28T01:13:39;9.95;;;4.10;;
21430;SDS011;10876;49.038;10.608;2022-12-28T01:16:09;7.82;;;4.30;;
21430;SDS011;10876;49.038;10.608;2022-12-28T01:18:37;8.38;;;4.97;;
21430;SDS011;10876;49.038;10.608;2022-12-28T01:21:08;5.40;;;3.60;;
21430;SDS011;10876;49.038;10.608;2022-12-28T01:23:34;10.88;;;5.28;;
21430;SDS011;10876;49.038;10.608;2022-12-28T01:26:01;17.05;;;6.00;;
21430;SDS011;10876;49.038;10.608;2022-12-28T01:28:28;10.35;;;5.72;;
21430;SDS011;10876;49.038;10.608;2022-12-28T01:30:54;8.57;;;4.57;;
21430;SDS011;10876;49.038;10.608;2022-12-28T01:33:21;8.90;;;4.85;;
21430;SDS011;10876;49.038;10.608;2022-12-28T01:35:49;12.43;;;6.10;;
21430;SDS011;10876;49.038;10.608;2022-12-28T01:38:16;12.57;;;5.07;;
21430;SDS011;10876;49.038;10.608;2022-12-28T01:40:42;10.90;;;5.53;;
21430;SDS011;10876;49.038;10.608;2022-12-28T01:43:10;11.27;;;5.65;;
21430;SDS011;10876;49.038;10.608;2022-12-28T01:45:37;10.73;;;6.75;;
21430;SDS011;10876;49.038;10.608;2022-12-28T01:48:04;11.93;;;6.07;;
21430;SDS011;10876;49.038;10.608;2022-12-28T01:50:33;12.10;;;7.10;;
21430;SDS011;10876;49.038;10.608;2022-12-28T01:53:02;13.05;;;6.93;;
21430;SDS011;10876;49.038;10.608;2022-12-28T01:55:30;11.35;;;6.28;;
21430;SDS011;10876;49.038;10.608;2022-12-28T01:57:58;11.80;;;6.10;;
21430;SDS011;10876;49.038;10.608;2022-12-28T02:00:26;10.63;;;6.88;;
21430;SDS011;10876;49.038;10.608;2022-12-28T02:02:54;16.30;;;7.00;;
21430;SDS011;10876;49.038;10.608;2022-12-28T02:05:23;11.65;;;6.93;;
21430;SDS011;10876;49.038;10.608;2022-12-28T02:07:51;14.95;;;7.13;;
21430;SDS011;10876;49.038;10.608;2022-12-28T02:10:20;14.38;;;7.28;;
21430;SDS011;10876;49.038;10.608;2022-12-28T02:12:47;17.90;;;7.88;;
21430;SDS011;10876;49.038;10.608;2022-12-28T02:15:14;13.85;;;7.05;;
21430;SDS011;10876;49.038;10.608;2022-12-28T02:17:40;17.88;;;8.65;;
21430;SDS011;10876;49.038;10.608;2022-12-28T02:20:07;13.05;;;6.70;;
21430;SDS011;10876;49.038;10.608;2022-12-28T02:22:48;11.93;;;7.80;;
21430;SDS011;10876;49.038;10.608;2022-12-28T02:25:35;17.25;;;9.43;;
21430;SDS011;10876;49.038;10.608;2022-12-28T02:28:08;17.92;;;9.35;;
21430;SDS011;10876;49.038;10.608;2022-12-28T02:30:43;15.27;;;7.95;;
21430;SDS011;10876;49.038;10.608;2022-12-28T02:33:14;18.77;;;9.27;;
21430;SDS011;10876;49.038;10.608;2022-12-28T02:35:45;13.73;;;8.50;;
21430;SDS011;10876;49.038;10.608;2022-12-28T02:38:14;14.93;;;8.65;;
21430;SDS011;10876;49.038;10.608;2022-12-28T02:40:42;21.55;;;8.30;;
21430;SDS011;10876;49.038;10.608;2022-12-28T02:43:10;14.38;;;7.57;;
21430;SDS011;10876;49.038;10.608;2022-12-28T02:45:38;16.63;;;8.45;;
21430;SDS011;10876;49.038;10.608;2022-12-28T02:48:23;16.17;;;8.73;;
21430;SDS011;10876;49.038;10.608;2022-12-28T02:51:11;13.73;;;7.22;;
21430;SDS011;10876;49.038;10.608;2022-12-28T02:53:43;15.68;;;8.23;;
21430;SDS011;10876;49.038;10.608;2022-12-28T02:56:16;19.98;;;8.98;;
21430;SDS011;10876;49.038;10.608;2022-12-28T03:01:41;18.42;;;9.18;;
21430;SDS011;10876;49.038;10.608;2022-12-28T03:04:14;13.48;;;8.10;;
21430;SDS011;10876;49.038;10.608;2022-12-28T03:06:43;14.63;;;7.03;;
21430;SDS011;10876;49.038;10.608;2022-12-28T03:09:33;16.38;;;7.57;;
21430;SDS011;10876;49.038;10.608;2022-12-28T03:12:03;11.07;;;6.13;;
21430;SDS011;10876;49.038;10.608;2022-12-28T03:14:33;16.38;;;7.15;;
21430;SDS011;10876;49.038;10.608;2022-12-28T03:17:00;17.70;;;7.70;;
21430;SDS011;10876;49.038;10.608;2022-12-28T03:19:48;12.88;;;7.20;;
21430;SDS011;10876;49.038;10.608;2022-12-28T03:22:33;15.68;;;7.53;;
21430;SDS011;10876;49.038;10.608;2022-12-28T03:25:18;13.70;;;8.05;;
21430;SDS011;10876;49.038;10.608;2022-12-28T03:28:04;12.82;;;7.30;;
21430;SDS011;10876;49.038;10.608;2022-12-28T03:30:50;18.15;;;7.57;;
21430;SDS011;10876;49.038;10.608;2022-12-28T03:33:30;14.80;;;7.53;;
21430;SDS011;10876;49.038;10.608;2022-12-28T03:36:00;14.30;;;7.35;;
21430;SDS011;10876;49.038;10.608;2022-12-28T03:38:30;13.48;;;6.30;;
21430;SDS011;10876;49.038;10.608;2022-12-28T03:41:00;17.08;;;8.23;;
21430;SDS011;10876;49.038;10.608;2022-12-28T03:43:33;13.10;;;7.13;;
21430;SDS011;10876;49.038;10.608;2022-12-28T03:46:08;14.35;;;6.65;;
21430;SDS011;10876;49.038;10.608;2022-12-28T03:48:36;13.52;;;6.85;;
21430;SDS011;10876;49.038;10.608;2022-12-28T03:51:04;12.35;;;6.82;;
21430;SDS011;10876;49.038;10.608;2022-12-28T03:53:35;15.70;;;8.38;;
21430;SDS011;10876;49.038;10.608;2022-12-28T03:56:06;16.58;;;6.90;;
21430;SDS011;10876;49.038;10.608;2022-12-28T03:58:34;12.23;;;6.70;;
21430;SDS011;10876;49.038;10.608;2022-12-28T04:01:00;18.15;;;8.82;;
21430;SDS011;10876;49.038;10.608;2022-12-28T04:03:27;17.45;;;7.82;;
21430;SDS011;10876;49.038;10.608;2022-12-28T04:05:53;15.85;;;8.00;;
21430;SDS011;10876;49.038;10.608;2022-12-28T04:08:21;17.48;;;7.97;;
21430;SDS011;10876;49.038;10.608;2022-12-28T04:10:48;13.25;;;6.75;;
21430;SDS011;10876;49.038;10.608;2022-12-28T04:13:15;20.17;;;8.45;;
21430;SDS011;10876;49.038;10.608;2022-12-28T04:15:41;11.60;;;6.70;;
21430;SDS011;10876;49.038;10.608;2022-12-28T04:18:08;12.65;;;7.35;;
21430;SDS011;10876;49.038;10.608;2022-12-28T04:20:35;20.10;;;8.80;;
21430;SDS011;10876;49.038;10.608;2022-12-28T04:23:01;13.35;;;7.38;;
21430;SDS011;10876;49.038;10.608;2022-12-28T04:25:29;15.68;;;8.27;;
21430;SDS011;10876;49.038;10.608;2022-12-28T04:27:56;20.15;;;8.35;;
21430;SDS011;10876;49.038;10.608;2022-12-28T04:30:22;16.33;;;7.70;;
21430;SDS011;10876;49.038;10.608;2022-12-28T04:32:49;16.17;;;7.38;;
21430;SDS011;10876;49.038;10.608;2022-12-28T04:35:16;13.43;;;7.60;;
21430;SDS011;10876;49.038;10.608;2022-12-28T04:37:42;17.90;;;8.68;;
21430;SDS011;10876;49.038;10.608;2022-12-28T04:40:09;13.68;;;6.78;;
21430;SDS011;10876;49.038;10.608;2022-12-28T04:42:37;20.48;;;9.20;;
21430;SDS011;10876;49.038;10.608;2022-12-28T04:45:04;17.80;;;8.10;;
21430;SDS011;10876;49.038;10.608;2022-12-28T04:47:31;21.35;;;9.73;;
21430;SDS011;10876;49.038;10.608;2022-12-28T04:49:58;19.48;;;9.95;;
21430;SDS011;10876;49.038;10.608;2022-12-28T04:52:25;23.15;;;10.48;;
21430;SDS011;10876;49.038;10.608;2022-12-28T04:54:51;19.98;;;9.45;;
21430;SDS011;10876;49.038;10.608;2022-12-28T04:57:18;24.13;;;10.85;;
21430;SDS011;10876;49.038;10.608;2022-12-28T04:59:46;19.90;;;9.27;;
21430;SDS011;10876;49.038;10.608;2022-12-28T05:02:12;17.63;;;8.65;;
21430;SDS011;10876;49.038;10.608;2022-12-28T05:04:39;20.20;;;9.00;;
21430;SDS011;10876;49.038;10.608;2022-12-28T05:07:06;21.83;;;9.20;;
21430;SDS011;10876;49.038;10.608;2022-12-28T05:09:32;19.83;;;9.18;;
21430;SDS011;10876;49.038;10.608;2022-12-28T05:11:59;23.70;;;9.68;;
21430;SDS011;10876;49.038;10.608;2022-12-28T05:14:25;20.10;;;8.45;;
21430;SDS011;10876;49.038;10.608;2022-12-28T05:16:54;16.35;;;8.05;;
21430;SDS011;10876;49.038;10.608;2022-12-28T05:19:20;17.40;;;8.65;;
21430;SDS011;10876;49.038;10.608;2022-12-28T05:21:47;15.50;;;8.13;;
21430;SDS011;10876;49.038;10.608;2022-12-28T05:24:14;19.40;;;9.48;;
21430;SDS011;10876;49.038;10.608;2022-12-28T05:26:40;17.15;;;7.97;;
21430;SDS011;10876;49.038;10.608;2022-12-28T05:29:07;15.50;;;8.27;;
21430;SDS011;10876;49.038;10.608;2022-12-28T05:31:34;19.88;;;9.63;;
21430;SDS011;10876;49.038;10.608;2022-12-28T05:34:02;16.13;;;7.15;;
21430;SDS011;10876;49.038;10.608;2022-12-28T05:36:28;27.77;;;11.18;;
21430;SDS011;10876;49.038;10.608;2022-12-28T05:38:56;18.15;;;7.97;;
21430;SDS011;10876;49.038;10.608;2022-12-28T05:41:24;19.80;;;8.25;;
21430;SDS011;10876;49.038;10.608;2022-12-28T05:43:51;24.85;;;10.30;;
21430;SDS011;10876;49.038;10.608;2022-12-28T05:46:18;17.83;;;8.38;;
21430;SDS011;10876;49.038;10.608;2022-12-28T05:48:47;16.02;;;8.20;;
21430;SDS011;10876;49.038;10.608;2022-12-28T05:51:16;15.95;;;8.82;;
21430;SDS011;10876;49.038;10.608;2022-12-28T05:53:42;18.63;;;8.43;;
21430;SDS011;10876;49.038;10.608;2022-12-28T05:56:10;17.13;;;8.25;;
21430;SDS011;10876;49.038;10.608;2022-12-28T05:58:37;19.60;;;8.27;;
21430;SDS011;10876;49.038;10.608;2022-12-28T06:01:05;9.35;;;4.75;;
21430;SDS011;10876;49.038;10.608;2022-12-28T06:03:32;22.70;;;8.63;;
21430;SDS011;10876;49.038;10.608;2022-12-28T06:06:03;22.90;;;10.38;;
21430;SDS011;10876;49.038;10.608;2022-12-28T06:08:31;14.40;;;6.05;;
21430;SDS011;10876;49.038;10.608;2022-12-28T06:10:58;21.00;;;9.38;;
21430;SDS011;10876;49.038;10.608;2022-12-28T06:13:25;18.98;;;8.75;;
21430;SDS011;10876;49.038;10.608;2022-12-28T06:15:52;22.30;;;9.93;;
21430;SDS011;10876;49.038;10.608;2022-12-28T06:18:19;20.30;;;9.68;;
21430;SDS011;10876;49.038;10.608;2022-12-28T06:20:46;17.80;;;7.80;;
21430;SDS011;10876;49.038;10.608;2022-12-28T06:23:12;16.65;;;8.07;;
21430;SDS011;10876;49.038;10.608;2022-12-28T06:25:40;18.27;;;8.50;;
21430;SDS011;10876;49.038;10.608;2022-12-28T06:28:07;18.77;;;8.23;;
21430;SDS011;10876;49.038;10.608;2022-12-28T06:30:34;15.23;;;7.47;;
21430;SDS011;10876;49.038;10.608;2022-12-28T06:33:00;19.98;;;7.35;;
21430;SDS011;10876;49.038;10.608;2022-12-28T06:35:27;15.57;;;8.43;;
21430;SDS011;10876;49.038;10.608;2022-12-28T06:37:54;15.30;;;7.30;;
21430;SDS011;10876;49.038;10.608;2022-12-28T06:40:20;15.32;;;8.00;;
21430;SDS011;10876;49.038;10.608;2022-12-28T06:42:48;17.77;;;7.75;;
21430;SDS011;10876;49.038;10.608;2022-12-28T06:45:15;20.45;;;9.25;;
21430;SDS011;10876;49.038;10.608;2022-12-28T06:47:42;22.73;;;9.15;;
21430;SDS011;10876;49.038;10.608;2022-12-28T06:50:08;21.08;;;9.27;;
21430;SDS011;10876;49.038;10.608;2022-12-28T06:52:35;19.55;;;8.98;;
21430;SDS011;10876;49.038;10.608;2022-12-28T06:55:01;18.08;;;8.73;;
21430;SDS011;10876;49.038;10.608;2022-12-28T06:57:28;16.15;;;8.77;;
21430;SDS011;10876;49.038;10.608;2022-12-28T06:59:56;20.17;;;8.98;;
21430;SDS011;10876;49.038;10.608;2022-12-28T07:02:23;23.65;;;10.05;;
21430;SDS011;10876;49.038;10.608;2022-12-28T07:04:49;20.55;;;8.70;;
21430;SDS011;10876;49.038;10.608;2022-12-28T07:07:16;16.23;;;8.48;;
21430;SDS011;10876;49.038;10.608;2022-12-28T07:09:43;13.60;;;6.25;;
21430;SDS011;10876;49.038;10.608;2022-12-28T07:12:09;15.18;;;7.28;;
21430;SDS011;10876;49.038;10.608;2022-12-28T07:14:36;18.73;;;9.13;;
21430;SDS011;10876;49.038;10.608;2022-12-28T07:17:04;16.52;;;6.75;;
21430;SDS011;10876;49.038;10.608;2022-12-28T07:19:30;19.42;;;8.60;;
21430;SDS011;10876;49.038;10.608;2022-12-28T07:21:57;17.52;;;8.07;;
21430;SDS011;10876;49.038;10.608;2022-12-28T07:24:24;20.08;;;8.68;;
21430;SDS011;10876;49.038;10.608;2022-12-28T07:26:50;18.77;;;7.82;;
21430;SDS011;10876;49.038;10.608;2022-12-28T07:29:17;26.55;;;9.30;;
21430;SDS011;10876;49.038;10.608;2022-12-28T07:31:44;21.40;;;9.00;;
21430;SDS011;10876;49.038;10.608;2022-12-28T07:34:12;22.55;;;10.45;;
21430;SDS011;10876;49.038;10.608;2022-12-28T07:36:38;19.35;;;7.80;;
21430;SDS011;10876;49.038;10.608;2022-12-28T07:39:05;21.75;;;9.23;;
21430;SDS011;10876;49.038;10.608;2022-12-28T07:41:32;24.10;;;10.23;;
21430;SDS011;10876;49.038;10.608;2022-12-28T07:44:00;25.63;;;9.82;;
21430;SDS011;10876;49.038;10.608;2022-12-28T07:46:28;19.02;;;7.75;;
21430;SDS011;10876;49.038;10.608;2022-12-28T07:48:57;22.70;;;9.70;;
21430;SDS011;10876;49.038;10.608;2022-12-28T07:51:27;19.42;;;8.60;;
21430;SDS011;10876;49.038;10.608;2022-12-28T07:53:54;18.73;;;8.40;;
21430;SDS011;10876;49.038;10.608;2022-12-28T07:56:22;18.65;;;8.65;;
21430;SDS011;10876;49.038;10.608;2022-12-28T07:58:49;25.50;;;10.75;;
21430;SDS011;10876;49.038;10.608;2022-12-28T08:01:17;26.92;;;10.52;;
21430;SDS011;10876;49.038;10.608;2022-12-28T08:03:44;20.30;;;9.35;;
21430;SDS011;10876;49.038;10.608;2022-12-28T08:06:11;18.30;;;8.98;;
21430;SDS011;10876;49.038;10.608;2022-12-28T08:08:40;19.38;;;9.02;;
21430;SDS011;10876;49.038;10.608;2022-12-28T08:11:08;22.77;;;9.82;;
21430;SDS011;10876;49.038;10.608;2022-12-28T08:13:35;21.02;;;9.60;;
21430;SDS011;10876;49.038;10.608;2022-12-28T08:16:02;26.05;;;10.38;;
21430;SDS011;10876;49.038;10.608;2022-12-28T08:18:29;22.48;;;9.70;;
21430;SDS011;10876;49.038;10.608;2022-12-28T08:20:59;17.00;;;8.35;;
21430;SDS011;10876;49.038;10.608;2022-12-28T08:23:25;25.10;;;10.20;;
21430;SDS011;10876;49.038;10.608;2022-12-28T08:25:53;21.25;;;8.52;;
21430;SDS011;10876;49.038;10.608;2022-12-28T08:28:20;17.88;;;8.95;;
21430;SDS011;10876;49.038;10.608;2022-12-28T08:30:47;15.52;;;8.23;;
21430;SDS011;10876;49.038;10.608;2022-12-28T08:33:13;17.40;;;7.90;;
21430;SDS011;10876;49.038;10.608;2022-12-28T08:35:40;22.00;;;9.20;;
21430;SDS011;10876;49.038;10.608;2022-12-28T08:38:07;18.75;;;9.32;;
21430;SDS011;10876;49.038;10.608;2022-12-28T08:40:33;16.40;;;7.00;;
21430;SDS011;10876;49.038;10.608;2022-12-28T08:43:02;16.15;;;8.05;;
21430;SDS011;10876;49.038;10.608;2022-12-28T08:45:28;18.92;;;8.50;;
21430;SDS011;10876;49.038;10.608;2022-12-28T08:47:55;19.92;;;8.63;;
21430;SDS011;10876;49.038;10.608;2022-12-28T08:50:21;8.27;;;5.53;;
21430;SDS011;10876;49.038;10.608;2022-12-28T08:52:48;10.77;;;5.38;;
21430;SDS011;10876;49.038;10.608;2022-12-28T08:55:15;13.27;;;7.18;;
21430;SDS011;10876;49.038;10.608;2022-12-28T08:57:42;13.15;;;6.45;;
21430;SDS011;10876;49.038;10.608;2022-12-28T09:00:11;17.60;;;8.48;;
21430;SDS011;10876;49.038;10.608;2022-12-28T09:02:37;12.05;;;6.15;;
21430;SDS011;10876;49.038;10.608;2022-12-28T09:05:04;15.13;;;7.38;;
21430;SDS011;10876;49.038;10.608;2022-12-28T09:07:31;20.80;;;8.68;;
21430;SDS011;10876;49.038;10.608;2022-12-28T09:09:58;21.17;;;9.80;;
21430;SDS011;10876;49.038;10.608;2022-12-28T09:12:25;19.15;;;9.43;;
21430;SDS011;10876;49.038;10.608;2022-12-28T09:14:54;14.35;;;8.70;;
21430;SDS011;10876;49.038;10.608;2022-12-28T09:17:22;15.88;;;7.97;;
21430;SDS011;10876;49.038;10.608;2022-12-28T09:19:49;13.15;;;6.78;;
21430;SDS011;10876;49.038;10.608;2022-12-28T09:22:16;17.98;;;8.45;;
21430;SDS011;10876;49.038;10.608;2022-12-28T09:24:42;16.02;;;6.63;;
21430;SDS011;10876;49.038;10.608;2022-12-28T09:27:09;20.20;;;9.15;;
21430;SDS011;10876;49.038;10.608;2022-12-28T09:29:36;16.38;;;7.43;;
21430;SDS011;10876;49.038;10.608;2022-12-28T09:32:02;17.10;;;7.00;;
21430;SDS011;10876;49.038;10.608;2022-12-28T09:34:30;14.70;;;6.72;;
21430;SDS011;10876;49.038;10.608;2022-12-28T09:37:00;15.55;;;7.00;;
21430;SDS011;10876;49.038;10.608;2022-12-28T09:39:28;14.63;;;6.95;;
21430;SDS011;10876;49.038;10.608;2022-12-28T09:41:57;14.43;;;6.90;;
21430;SDS011;10876;49.038;10.608;2022-12-28T09:44:43;11.90;;;6.85;;
21430;SDS011;10876;49.038;10.608;2022-12-28T09:47:13;14.30;;;7.38;;
21430;SDS011;10876;49.038;10.608;2022-12-28T09:49:44;14.23;;;7.10;;
21430;SDS011;10876;49.038;10.608;2022-12-28T09:52:21;12.68;;;6.32;;
21430;SDS011;10876;49.038;10.608;2022-12-28T09:54:50;15.38;;;7.07;;
21430;SDS011;10876;49.038;10.608;2022-12-28T09:57:17;14.82;;;5.70;;
21430;SDS011;10876;49.038;10.608;2022-12-28T09:59:52;13.73;;;7.00;;
21430;SDS011;10876;49.038;10.608;2022-12-28T10:02:21;13.68;;;7.07;;
21430;SDS011;10876;49.038;10.608;2022-12-28T10:04:51;13.45;;;7.18;;
21430;SDS011;10876;49.038;10.608;2022-12-28T10:07:17;12.60;;;6.63;;
21430;SDS011;10876;49.038;10.608;2022-12-28T10:09:44;8.38;;;4.50;;
21430;SDS011;10876;49.038;10.608;2022-12-28T10:12:12;14.55;;;6.10;;
21430;SDS011;10876;49.038;10.608;2022-12-28T10:14:39;14.00;;;6.90;;
21430;SDS011;10876;49.038;10.608;2022-12-28T10:17:07;10.63;;;6.45;;
21430;SDS011;10876;49.038;10.608;2022-12-28T10:19:34;11.55;;;6.10;;
21430;SDS011;10876;49.038;10.608;2022-12-28T10:22:02;11.27;;;5.88;;
21430;SDS011;10876;49.038;10.608;2022-12-28T10:24:29;6.30;;;4.28;;
21430;SDS011;10876;49.038;10.608;2022-12-28T10:26:57;10.48;;;4.70;;
21430;SDS011;10876;49.038;10.608;2022-12-28T10:29:24;9.32;;;4.75;;
21430;SDS011;10876;49.038;10.608;2022-12-28T10:32:00;8.40;;;4.72;;
21430;SDS011;10876;49.038;10.608;2022-12-28T10:34:27;8.40;;;4.13;;
21430;SDS011;10876;49.038;10.608;2022-12-28T10:36:54;5.32;;;3.25;;
21430;SDS011;10876;49.038;10.608;2022-12-28T10:39:26;10.75;;;4.60;;
21430;SDS011;10876;49.038;10.608;2022-12-28T10:41:53;10.55;;;5.28;;
21430;SDS011;10876;49.038;10.608;2022-12-28T10:44:23;9.15;;;5.40;;
21430;SDS011;10876;49.038;10.608;2022-12-28T10:46:55;6.95;;;3.28;;
21430;SDS011;10876;49.038;10.608;2022-12-28T10:49:23;7.47;;;3.80;;
21430;SDS011;10876;49.038;10.608;2022-12-28T10:51:57;9.60;;;3.78;;
21430;SDS011;10876;49.038;10.608;2022-12-28T10:54:25;11.30;;;4.88;;
21430;SDS011;10876;49.038;10.608;2022-12-28T10:56:52;4.43;;;3.33;;
21430;SDS011;10876;49.038;10.608;2022-12-28T10:59:21;7.90;;;4.35;;
21430;SDS011;10876;49.038;10.608;2022-12-28T11:01:50;8.75;;;3.58;;
21430;SDS011;10876;49.038;10.608;2022-12-28T11:04:17;8.10;;;3.63;;
21430;SDS011;10876;49.038;10.608;2022-12-28T11:06:50;6.70;;;4.05;;
21430;SDS011;10876;49.038;10.608;2022-12-28T11:09:19;6.93;;;3.92;;
21430;SDS011;10876;49.038;10.608;2022-12-28T11:11:48;10.20;;;4.95;;
21430;SDS011;10876;49.038;10.608;2022-12-28T11:14:33;8.85;;;4.30;;
21430;SDS011;10876;49.038;10.608;2022-12-28T11:17:04;6.78;;;3.33;;
21430;SDS011;10876;49.038;10.608;2022-12-28T11:19:32;8.45;;;4.90;;
21430;SDS011;10876;49.038;10.608;2022-12-28T11:21:59;9.57;;;4.72;;
21430;SDS011;10876;49.038;10.608;2022-12-28T11:24:26;4.75;;;3.38;;
21430;SDS011;10876;49.038;10.608;2022-12-28T11:26:54;9.10;;;4.70;;
21430;SDS011;10876;49.038;10.608;2022-12-28T11:29:21;7.68;;;3.72;;
21430;SDS011;10876;49.038;10.608;2022-12-28T11:31:48;10.70;;;5.00;;
21430;SDS011;10876;49.038;10.608;2022-12-28T11:34:19;7.63;;;4.28;;
21430;SDS011;10876;49.038;10.608;2022-12-28T11:36:48;10.82;;;4.90;;
21430;SDS011;10876;49.038;10.608;2022-12-28T11:39:31;9.80;;;3.30;;
21430;SDS011;10876;49.038;10.608;2022-12-28T11:42:00;9.23;;;4.50;;
21430;SDS011;10876;49.038;10.608;2022-12-28T11:44:47;6.93;;;4.10;;
21430;SDS011;10876;49.038;10.608;2022-12-28T11:47:21;13.45;;;4.78;;
21430;SDS011;10876;49.038;10.608;2022-12-28T11:49:50;7.28;;;4.18;;
21430;SDS011;10876;49.038;10.608;2022-12-28T11:52:31;7.63;;;3.90;;
21430;SDS011;10876;49.038;10.608;2022-12-28T11:54:59;9.43;;;4.53;;
21430;SDS011;10876;49.038;10.608;2022-12-28T11:57:35;5.95;;;3.35;;
21430;SDS011;10876;49.038;10.608;2022-12-28T12:02:49;7.32;;;4.00;;
21430;SDS011;10876;49.038;10.608;2022-12-28T12:08:00;6.47;;;3.70;;
21430;SDS011;10876;49.038;10.608;2022-12-28T12:10:31;7.03;;;3.80;;
21430;SDS011;10876;49.038;10.608;2022-12-28T12:13:33;5.70;;;3.72;;
21430;SDS011;10876;49.038;10.608;2022-12-28T12:15:55;4.93;;;3.40;;
21430;SDS011;10876;49.038;10.608;2022-12-28T12:18:24;6.07;;;3.42;;
21430;SDS011;10876;49.038;10.608;2022-12-28T12:20:53;7.95;;;3.63;;
21430;SDS011;10876;49.038;10.608;2022-12-28T12:23:23;4.38;;;2.75;;
21430;SDS011;10876;49.038;10.608;2022-12-28T12:25:51;4.70;;;2.85;;
21430;SDS011;10876;49.038;10.608;2022-12-28T12:28:25;3.63;;;2.40;;
21430;SDS011;10876;49.038;10.608;2022-12-28T12:30:53;4.40;;;2.55;;
21430;SDS011;10876;49.038;10.608;2022-12-28T12:33:22;4.28;;;2.47;;
21430;SDS011;10876;49.038;10.608;2022-12-28T12:35:53;4.53;;;2.88;;
21430;SDS011;10876;49.038;10.608;2022-12-28T12:38:26;6.00;;;3.15;;
21430;SDS011;10876;49.038;10.608;2022-12-28T12:40:59;6.18;;;3.38;;
21430;SDS011;10876;49.038;10.608;2022-12-28T12:43:34;3.95;;;2.75;;
21430;SDS011;10876;49.038;10.608;2022-12-28T12:46:16;6.60;;;3.47;;
21430;SDS011;10876;49.038;10.608;2022-12-28T12:48:50;5.03;;;3.33;;
21430;SDS011;10876;49.038;10.608;2022-12-28T12:51:24;6.15;;;2.83;;
21430;SDS011;10876;49.038;10.608;2022-12-28T12:54:01;5.38;;;3.42;;
21430;SDS011;10876;49.038;10.608;2022-12-28T12:56:34;5.20;;;3.15;;
21430;SDS011;10876;49.038;10.608;2022-12-28T12:59:08;5.20;;;3.25;;
21430;SDS011;10876;49.038;10.608;2022-12-28T13:01:44;5.97;;;3.50;;
21430;SDS011;10876;49.038;10.608;2022-12-28T13:04:16;6.10;;;3.40;;
21430;SDS011;10876;49.038;10.608;2022-12-28T13:06:44;5.45;;;3.10;;
21430;SDS011;10876;49.038;10.608;2022-12-28T13:09:12;8.85;;;3.00;;
21430;SDS011;10876;49.038;10.608;2022-12-28T13:11:40;5.80;;;4.07;;
21430;SDS011;10876;49.038;10.608;2022-12-28T13:14:11;5.00;;;3.35;;
21430;SDS011;10876;49.038;10.608;2022-12-28T13:16:39;4.57;;;3.03;;
21430;SDS011;10876;49.038;10.608;2022-12-28T13:19:05;4.53;;;2.40;;
21430;SDS011;10876;49.038;10.608;2022-12-28T13:21:39;4.50;;;2.97;;
21430;SDS011;10876;49.038;10.608;2022-12-28T13:24:16;5.72;;;3.13;;
21430;SDS011;10876;49.038;10.608;2022-12-28T13:26:43;6.75;;;3.42;;
21430;SDS011;10876;49.038;10.608;2022-12-28T13:29:14;3.83;;;2.72;;
21430;SDS011;10876;49.038;10.608;2022-12-28T13:31:43;3.70;;;2.42;;
21430;SDS011;10876;49.038;10.608;2022-12-28T13:34:15;6.60;;;2.90;;
21430;SDS011;10876;49.038;10.608;2022-12-28T13:36:46;5.25;;;3.10;;
21430;SDS011;10876;49.038;10.608;2022-12-28T13:39:13;4.25;;;2.67;;
21430;SDS011;10876;49.038;10.608;2022-12-28T13:41:43;4.40;;;2.63;;
21430;SDS011;10876;49.038;10.608;2022-12-28T13:44:15;3.88;;;2.65;;
21430;SDS011;10876;49.038;10.608;2022-12-28T13:46:43;6.40;;;2.60;;
21430;SDS011;10876;49.038;10.608;2022-12-28T13:49:15;7.65;;;2.97;;
21430;SDS011;10876;49.038;10.608;2022-12-28T13:51:42;4.30;;;2.42;;
21430;SDS011;10876;49.038;10.608;2022-12-28T13:54:09;4.57;;;2.53;;
21430;SDS011;10876;49.038;10.608;2022-12-28T13:56:36;7.35;;;2.63;;
21430;SDS011;10876;49.038;10.608;2022-12-28T13:59:05;3.00;;;2.40;;
21430;SDS011;10876;49.038;10.608;2022-12-28T14:01:34;4.15;;;2.55;;
21430;SDS011;10876;49.038;10.608;2022-12-28T14:04:02;7.55;;;2.58;;
21430;SDS011;10876;49.038;10.608;2022-12-28T14:06:31;2.80;;;2.20;;
21430;SDS011;10876;49.038;10.608;2022-12-28T14:08:57;5.55;;;2.78;;
21430;SDS011;10876;49.038;10.608;2022-12-28T14:11:24;3.53;;;2.67;;
21430;SDS011;10876;49.038;10.608;2022-12-28T14:13:52;4.30;;;2.38;;
21430;SDS011;10876;49.038;10.608;2022-12-28T14:16:19;5.95;;;2.88;;
21430;SDS011;10876;49.038;10.608;2022-12-28T14:18:47;2.92;;;2.05;;
21430;SDS011;10876;49.038;10.608;2022-12-28T14:21:14;3.55;;;2.67;;
21430;SDS011;10876;49.038;10.608;2022-12-28T14:23:41;4.55;;;2.63;;
21430;SDS011;10876;49.038;10.608;2022-12-28T14:26:08;3.70;;;2.25;;
21430;SDS011;10876;49.038;10.608;2022-12-28T14:28:36;3.60;;;2.75;;
21430;SDS011;10876;49.038;10.608;2022-12-28T14:31:05;4.78;;;2.58;;
21430;SDS011;10876;49.038;10.608;2022-12-28T14:33:33;4.05;;;2.60;;
21430;SDS011;10876;49.038;10.608;2022-12-28T14:36:02;4.70;;;2.65;;
21430;SDS011;10876;49.038;10.608;2022-12-28T14:38:31;4.15;;;2.50;;
21430;SDS011;10876;49.038;10.608;2022-12-28T14:40:58;3.38;;;2.40;;
21430;SDS011;10876;49.038;10.608;2022-12-28T14:43:26;4.15;;;2.75;;